Time;durP1;ratioP1;P1;durP2;ratioP2;P2;SDS_P1;SDS_P2;PMS_P1;PMS_P2;Temp;Humidity;BMP_temperature;BMP_pressure;BME280_temperature;BME280_humidity;BME280_pressure;Samples;Min_cycle;Max_cycle;Signal;HPM_P1;HPM_P2
2021/12/19 00:02:42;;;;;;;12.52;5.43;;;8.30;99.90;;;;;;4955417;29;20113;-82
2021/12/19 00:10:37;;;;;;;13.82;6.43;;;8.10;99.90;;;;;;4955231;29;20047;-82
2021/12/19 00:13:03;;;;;;;12.93;6.57;;;8.10;99.90;;;;;;4955414;29;20121;-83
2021/12/19 00:15:29;;;;;;;13.60;6.50;;;8.10;99.90;;;;;;4955278;29;20035;-83
2021/12/19 00:17:57;;;;;;;18.08;6.78;;;8.10;99.90;;;;;;4955067;29;20051;-78
2021/12/19 00:20:23;;;;;;;12.90;6.53;;;8.30;99.90;;;;;;4955326;29;20039;-78
2021/12/19 00:22:48;;;;;;;16.23;7.43;;;8.10;99.90;;;;;;4955042;29;20047;-78
2021/12/19 00:25:14;;;;;;;13.88;7.13;;;8.10;99.90;;;;;;4939036;29;20051;-78
2021/12/19 00:27:40;;;;;;;13.63;6.63;;;8.10;99.90;;;;;;4938945;29;20059;-82
2021/12/19 00:30:06;;;;;;;15.80;7.10;;;8.30;99.90;;;;;;4956396;29;20067;-83
2021/12/19 00:32:32;;;;;;;19.27;7.18;;;8.20;99.90;;;;;;4939245;29;20043;-82
2021/12/19 00:34:58;;;;;;;13.10;6.35;;;8.30;99.90;;;;;;4954831;29;20046;-82
2021/12/19 00:37:24;;;;;;;11.75;5.43;;;8.30;99.90;;;;;;4954818;28;20051;-82
2021/12/19 00:39:50;;;;;;;13.35;5.90;;;8.10;99.90;;;;;;4955157;29;20509;-82
2021/12/19 00:42:31;;;;;;;8.77;4.97;;;8.10;99.90;;;;;;4955020;29;20130;-82
2021/12/19 00:45:01;;;;;;;11.07;4.43;;;8.20;99.90;;;;;;4955555;29;20441;-82
2021/12/19 00:47:27;;;;;;;7.80;3.47;;;8.60;99.90;;;;;;4938509;29;20377;-82
2021/12/19 00:49:54;;;;;;;9.55;3.28;;;8.60;99.90;;;;;;4954842;29;20047;-83
2021/12/19 00:52:21;;;;;;;8.52;2.78;;;8.10;99.90;;;;;;4938955;29;20035;-82
2021/12/19 00:54:47;;;;;;;7.18;2.22;;;8.10;99.90;;;;;;4954398;29;20039;-83
2021/12/19 00:57:13;;;;;;;7.03;1.80;;;8.10;99.90;;;;;;4922814;29;20039;-82
2021/12/19 00:59:38;;;;;;;8.20;1.75;;;8.00;99.90;;;;;;4938406;29;20424;-82
2021/12/19 01:02:05;;;;;;;7.72;1.55;;;8.80;99.90;;;;;;4954719;29;20035;-82
2021/12/19 01:04:30;;;;;;;3.80;1.35;;;8.00;99.90;;;;;;4954637;29;20114;-82
2021/12/19 01:07:00;;;;;;;4.80;1.70;;;7.90;99.90;;;;;;4938560;29;20543;-83
2021/12/19 01:09:26;;;;;;;5.20;1.40;;;8.00;99.90;;;;;;4954616;29;20047;-82
2021/12/19 01:11:52;;;;;;;3.50;1.13;;;7.90;99.90;;;;;;4953961;28;20054;-82
2021/12/19 01:14:18;;;;;;;4.45;0.93;;;7.90;99.90;;;;;;4922585;29;20422;-82
2021/12/19 01:16:44;;;;;;;7.22;1.08;;;7.80;99.90;;;;;;4955147;28;20043;-82
2021/12/19 01:19:10;;;;;;;4.72;1.05;;;7.80;99.90;;;;;;4954327;29;20046;-82
2021/12/19 01:21:36;;;;;;;2.55;1.00;;;7.80;99.90;;;;;;4955324;28;20122;-82
2021/12/19 01:24:02;;;;;;;3.85;1.38;;;7.80;99.90;;;;;;4953938;29;20455;-83
2021/12/19 01:26:28;;;;;;;5.82;1.00;;;7.80;99.90;;;;;;4953842;28;20523;-82
2021/12/19 01:28:53;;;;;;;2.72;0.93;;;8.30;99.90;;;;;;4954048;29;20035;-82
2021/12/19 01:31:19;;;;;;;2.20;0.90;;;7.80;99.90;;;;;;4953560;29;20055;-83
2021/12/19 01:33:45;;;;;;;1.60;0.80;;;7.90;99.90;;;;;;4937833;29;20053;-82
2021/12/19 01:36:12;;;;;;;5.18;1.23;;;8.60;99.90;;;;;;4959304;28;20058;-82
2021/12/19 01:38:38;;;;;;;5.13;1.08;;;7.70;99.90;;;;;;4956498;28;20049;-77
2021/12/19 01:41:05;;;;;;;2.00;1.00;;;8.40;99.90;;;;;;4940887;28;20519;-78
2021/12/19 01:43:31;;;;;;;6.18;1.65;;;7.70;99.90;;;;;;4956550;28;20039;-78
2021/12/19 01:45:58;;;;;;;7.70;1.13;;;7.70;99.90;;;;;;4906620;29;20098;-78
2021/12/19 01:48:24;;;;;;;4.05;0.88;;;7.70;99.90;;;;;;4921950;29;20035;-78
2021/12/19 01:50:55;;;;;;;4.00;1.00;;;7.50;99.90;;;;;;4937615;29;20046;-78
2021/12/19 01:53:21;;;;;;;4.45;1.20;;;7.70;99.90;;;;;;4937607;29;20051;-78
2021/12/19 01:55:48;;;;;;;4.55;1.58;;;7.70;99.90;;;;;;4921450;29;20043;-78
2021/12/19 01:58:16;;;;;;;4.38;1.45;;;7.70;99.90;;;;;;4941173;28;20133;-78
2021/12/19 02:00:49;;;;;;;4.43;1.70;;;7.80;99.90;;;;;;4956444;28;20043;-78
2021/12/19 02:03:15;;;;;;;5.10;1.98;;;7.80;99.90;;;;;;4956949;28;20399;-78
2021/12/19 02:05:41;;;;;;;5.50;1.55;;;7.70;99.90;;;;;;4940457;28;20043;-77
2021/12/19 02:08:07;;;;;;;5.65;1.27;;;7.70;99.90;;;;;;4956330;28;20043;-77
2021/12/19 02:10:34;;;;;;;2.85;1.02;;;7.80;99.90;;;;;;4940558;28;20458;-77
2021/12/19 02:13:02;;;;;;;2.60;0.88;;;7.70;99.90;;;;;;4956182;28;20070;-77
2021/12/19 02:15:30;;;;;;;3.45;1.15;;;7.60;99.90;;;;;;4956143;28;20039;-77
2021/12/19 02:17:59;;;;;;;4.72;0.98;;;7.60;99.90;;;;;;4940272;28;20163;-77
2021/12/19 02:20:29;;;;;;;6.35;0.90;;;8.00;99.90;;;;;;4955931;28;20051;-78
2021/12/19 02:22:55;;;;;;;3.15;0.90;;;8.00;99.90;;;;;;4955195;28;20057;-77
2021/12/19 02:25:21;;;;;;;6.07;1.25;;;7.60;99.90;;;;;;4955873;28;20047;-77
2021/12/19 02:27:50;;;;;;;4.57;1.00;;;7.50;99.90;;;;;;4920622;29;20078;-77
2021/12/19 02:30:15;;;;;;;6.28;1.10;;;7.90;99.90;;;;;;4954463;29;20113;-77
2021/12/19 02:32:42;;;;;;;3.55;1.15;;;7.60;99.90;;;;;;4936747;29;20557;-77
2021/12/19 02:35:13;;;;;;;4.68;1.30;;;7.60;99.90;;;;;;4936765;29;20039;-77
2021/12/19 02:40:40;;;;;;;4.75;0.88;;;7.50;99.90;;;;;;4937138;29;20126;-78
2021/12/19 02:48:35;;;;;;;2.05;0.75;;;7.50;99.90;;;;;;4934502;28;20130;-77
2021/12/19 02:51:02;;;;;;;2.13;0.80;;;7.50;99.90;;;;;;4956006;28;20129;-78
2021/12/19 02:53:30;;;;;;;2.88;0.77;;;7.50;99.90;;;;;;4955524;28;20475;-77
2021/12/19 02:55:56;;;;;;;3.97;0.93;;;7.50;99.90;;;;;;4955465;28;20070;-77
2021/12/19 02:58:22;;;;;;;3.22;1.10;;;7.50;99.90;;;;;;4955925;28;20049;-77
2021/12/19 03:00:49;;;;;;;6.32;1.70;;;7.40;99.90;;;;;;4955965;28;20038;-78
2021/12/19 03:03:14;;;;;;;5.38;1.52;;;7.40;99.90;;;;;;4956138;28;20039;-77
2021/12/19 03:05:40;;;;;;;4.50;1.60;;;7.40;99.90;;;;;;4955271;28;20074;-77
2021/12/19 03:08:08;;;;;;;6.95;1.50;;;7.30;99.90;;;;;;4955709;28;20122;-77
2021/12/19 03:18:30;;;;;;;4.20;1.67;;;7.30;99.90;;;;;;4942327;28;20403;-77
2021/12/19 03:20:56;;;;;;;11.95;2.15;;;7.70;99.90;;;;;;4955575;28;20043;-77
2021/12/19 03:23:22;;;;;;;7.18;2.22;;;7.30;99.90;;;;;;4939204;28;20047;-77
2021/12/19 03:25:48;;;;;;;6.97;1.88;;;7.50;99.90;;;;;;4955610;28;20097;-77
2021/12/19 03:28:15;;;;;;;11.75;2.60;;;7.30;99.90;;;;;;4955621;28;20237;-77
2021/12/19 03:30:44;;;;;;;6.85;2.20;;;7.30;99.90;;;;;;4955290;28;20078;-77
2021/12/19 03:33:11;;;;;;;4.95;2.00;;;7.30;99.90;;;;;;4955365;28;20043;-77
2021/12/19 03:35:37;;;;;;;7.60;2.40;;;7.30;99.90;;;;;;4956143;28;20054;-77
2021/12/19 03:38:10;;;;;;;9.30;2.35;;;7.30;99.90;;;;;;4933609;29;20063;-77
2021/12/19 03:40:38;;;;;;;6.88;1.75;;;7.30;99.90;;;;;;4955718;29;20134;-77
2021/12/19 03:43:08;;;;;;;7.03;1.73;;;7.30;99.90;;;;;;4957187;28;20531;-77
2021/12/19 03:45:34;;;;;;;5.32;2.03;;;7.30;99.90;;;;;;4955853;29;20085;-77
2021/12/19 03:48:01;;;;;;;6.03;1.60;;;7.40;99.90;;;;;;4955597;29;20377;-77
2021/12/19 03:50:32;;;;;;;7.45;1.88;;;7.40;99.90;;;;;;4955659;29;20047;-77
2021/12/19 03:52:59;;;;;;;4.65;1.80;;;7.40;99.90;;;;;;4939523;29;20126;-77
2021/12/19 03:55:27;;;;;;;3.95;1.35;;;7.30;99.90;;;;;;4956219;29;20392;-76
2021/12/19 03:57:53;;;;;;;4.28;1.50;;;7.40;99.90;;;;;;4955512;29;20484;-77
2021/12/19 04:00:26;;;;;;;8.13;1.70;;;7.30;99.90;;;;;;4939473;29;20182;-77
2021/12/19 04:02:57;;;;;;;7.95;2.10;;;7.30;99.90;;;;;;4939200;29;20051;-77
2021/12/19 04:05:24;;;;;;;11.05;2.63;;;7.30;99.90;;;;;;4939335;29;20042;-77
2021/12/19 04:07:49;;;;;;;10.55;2.53;;;7.30;99.90;;;;;;4939431;29;20058;-77
2021/12/19 04:10:16;;;;;;;11.48;3.35;;;7.30;99.90;;;;;;4955290;29;20043;-77
2021/12/19 04:12:43;;;;;;;12.23;3.05;;;7.40;99.90;;;;;;4955438;29;20453;-77
2021/12/19 04:15:11;;;;;;;11.15;2.92;;;7.60;99.90;;;;;;4955219;29;20091;-77
2021/12/19 04:17:38;;;;;;;10.02;2.67;;;7.40;99.90;;;;;;4955273;29;20122;-77
2021/12/19 04:20:04;;;;;;;13.10;2.90;;;7.40;99.90;;;;;;4955306;29;20039;-77
2021/12/19 04:22:30;;;;;;;15.75;2.85;;;7.40;99.90;;;;;;4939308;29;20047;-77
2021/12/19 04:24:56;;;;;;;9.63;3.35;;;7.40;99.90;;;;;;4955112;29;20054;-77
2021/12/19 04:27:22;;;;;;;16.02;3.70;;;7.40;99.90;;;;;;4922427;29;20502;-77
2021/12/19 04:29:49;;;;;;;16.40;4.15;;;7.40;99.90;;;;;;4955017;29;20094;-77
2021/12/19 04:32:17;;;;;;;16.88;4.43;;;7.40;99.90;;;;;;4923322;29;20129;-77
2021/12/19 04:34:43;;;;;;;16.70;4.55;;;7.70;99.90;;;;;;4954849;29;20039;-77
2021/12/19 04:37:30;;;;;;;17.77;4.90;;;7.40;99.90;;;;;;4938694;29;20562;-77
2021/12/19 04:40:07;;;;;;;22.48;4.50;;;7.40;99.90;;;;;;4941766;29;20061;-77
2021/12/19 05:14:46;;;;;;;23.85;6.88;;;7.60;99.90;;;;;;4935075;29;20127;-81
2021/12/19 05:17:18;;;;;;;32.40;6.88;;;7.60;99.90;;;;;;4946192;29;20444;-81
2021/12/19 05:19:53;;;;;;;24.10;7.70;;;7.60;99.90;;;;;;4939409;29;20043;-81
2021/12/19 05:22:21;;;;;;;25.92;7.70;;;7.60;99.90;;;;;;4954083;29;20059;-82
2021/12/19 05:25:01;;;;;;;29.23;7.72;;;7.60;99.90;;;;;;4954130;29;20046;-77
2021/12/19 05:27:27;;;;;;;26.90;8.52;;;7.90;99.90;;;;;;4939543;29;20088;-76
2021/12/19 05:29:53;;;;;;;29.83;8.25;;;7.60;99.90;;;;;;4953856;29;20043;-77
2021/12/19 05:32:18;;;;;;;30.52;8.77;;;7.60;99.90;;;;;;4955116;29;20043;-76
2021/12/19 05:34:44;;;;;;;27.10;8.30;;;7.60;99.90;;;;;;4918866;29;20091;-77
2021/12/19 05:45:22;;;;;;;26.63;7.25;;;8.00;99.90;;;;;;4956952;28;20081;-77
2021/12/19 05:47:50;;;;;;;16.20;6.60;;;7.60;99.90;;;;;;4956713;28;20111;-77
2021/12/19 05:50:21;;;;;;;18.25;5.85;;;7.60;99.90;;;;;;4956682;28;20445;-81
2021/12/19 05:52:48;;;;;;;21.55;5.53;;;7.60;99.90;;;;;;4940445;28;20471;-81
2021/12/19 05:55:15;;;;;;;18.20;6.30;;;7.70;99.90;;;;;;4956658;28;20092;-81
2021/12/19 05:57:41;;;;;;;24.13;5.47;;;7.60;99.90;;;;;;4941138;28;20050;-82
2021/12/19 06:00:12;;;;;;;23.42;5.45;;;7.60;99.90;;;;;;4973900;28;20038;-81
2021/12/19 06:02:40;;;;;;;21.10;5.80;;;7.60;99.90;;;;;;4940770;28;20125;-82
2021/12/19 06:05:07;;;;;;;21.67;5.45;;;7.60;99.90;;;;;;4940298;28;20399;-81
2021/12/19 06:07:32;;;;;;;23.75;5.63;;;7.60;99.90;;;;;;4956209;28;20055;-81
2021/12/19 06:09:59;;;;;;;19.35;5.80;;;7.60;99.90;;;;;;4956305;28;20037;-81
2021/12/19 06:12:25;;;;;;;23.67;6.00;;;7.60;99.90;;;;;;4956507;28;20087;-81
2021/12/19 06:14:51;;;;;;;19.10;5.80;;;7.60;99.90;;;;;;4973936;28;20039;-81
2021/12/19 06:17:17;;;;;;;17.88;5.80;;;7.60;99.90;;;;;;4956338;28;20042;-82
2021/12/19 06:19:43;;;;;;;17.95;5.20;;;7.60;99.90;;;;;;4940754;28;20388;-82
2021/12/19 06:22:08;;;;;;;24.40;6.28;;;8.00;99.90;;;;;;4955976;28;20039;-81
2021/12/19 06:24:34;;;;;;;15.32;5.88;;;7.60;99.90;;;;;;4956166;28;20528;-81
2021/12/19 06:27:01;;;;;;;26.15;7.03;;;8.40;99.90;;;;;;4955805;28;20051;-81
2021/12/19 06:29:28;;;;;;;19.50;6.47;;;7.70;99.90;;;;;;4973575;28;20049;-81
2021/12/19 06:31:54;;;;;;;19.00;6.03;;;7.70;99.90;;;;;;4939791;28;20122;-81
2021/12/19 06:34:20;;;;;;;18.90;5.50;;;7.60;99.90;;;;;;4956210;28;20039;-81
2021/12/19 06:36:46;;;;;;;19.52;5.60;;;7.60;99.90;;;;;;4973277;28;20067;-82
2021/12/19 06:39:11;;;;;;;21.70;5.63;;;7.60;99.90;;;;;;4939870;28;20503;-82
2021/12/19 06:41:37;;;;;;;15.38;5.00;;;7.60;99.90;;;;;;4973431;28;20038;-81
2021/12/19 06:44:04;;;;;;;21.20;4.80;;;7.60;99.90;;;;;;4924469;28;20424;-81
2021/12/19 06:46:32;;;;;;;23.42;4.78;;;7.60;99.90;;;;;;4956045;28;20522;-81
2021/12/19 06:49:00;;;;;;;17.85;4.47;;;8.00;99.90;;;;;;4955858;28;20074;-81
2021/12/19 06:51:26;;;;;;;18.80;3.70;;;7.60;99.90;;;;;;4940118;28;20043;-81
2021/12/19 06:53:52;;;;;;;17.30;3.95;;;7.60;99.90;;;;;;4909088;29;20474;-82
2021/12/19 06:56:18;;;;;;;20.65;4.10;;;7.70;99.90;;;;;;4937583;28;20110;-82
2021/12/19 06:58:43;;;;;;;11.30;3.40;;;7.60;99.90;;;;;;4940021;28;20043;-82
2021/12/19 07:01:09;;;;;;;18.95;3.90;;;7.60;99.90;;;;;;4939869;28;20043;-81
2021/12/19 07:03:35;;;;;;;18.10;3.75;;;7.60;99.90;;;;;;4939829;28;20074;-81
2021/12/19 07:06:01;;;;;;;11.45;3.40;;;7.60;99.90;;;;;;4939606;28;20093;-82
2021/12/19 07:08:27;;;;;;;20.73;4.05;;;7.60;99.90;;;;;;4923895;28;20039;-81
2021/12/19 07:10:53;;;;;;;14.50;3.10;;;7.60;99.90;;;;;;4942523;28;20060;-82
2021/12/19 07:13:21;;;;;;;24.67;3.80;;;7.60;99.90;;;;;;4959694;28;20046;-82
2021/12/19 07:15:55;;;;;;;20.88;3.70;;;7.60;99.90;;;;;;4943785;28;20043;-82
2021/12/19 07:18:22;;;;;;;22.20;4.28;;;7.60;99.90;;;;;;4959175;28;20043;-81
2021/12/19 07:20:48;;;;;;;18.08;3.80;;;8.40;99.90;;;;;;4935903;29;20055;-82
2021/12/19 07:23:19;;;;;;;17.92;4.20;;;7.60;99.90;;;;;;4960391;28;20058;-82
2021/12/19 07:25:46;;;;;;;26.83;4.30;;;7.60;99.90;;;;;;4959308;28;20043;-82
2021/12/19 07:28:15;;;;;;;31.30;4.72;;;7.60;99.90;;;;;;4959044;28;20050;-81
2021/12/19 07:30:41;;;;;;;24.80;3.90;;;7.90;99.90;;;;;;4943205;28;20121;-82
2021/12/19 07:33:09;;;;;;;23.75;3.97;;;7.60;99.90;;;;;;4959485;28;20074;-81
2021/12/19 07:35:38;;;;;;;22.42;4.35;;;7.80;99.90;;;;;;4943171;28;20106;-81
2021/12/19 07:38:05;;;;;;;17.15;3.80;;;7.60;99.90;;;;;;4976283;28;20107;-81
2021/12/19 07:40:36;;;;;;;21.55;4.15;;;7.60;99.90;;;;;;4976480;28;20511;-82
2021/12/19 07:43:10;;;;;;;21.20;3.97;;;7.60;99.90;;;;;;4958953;28;20085;-82
2021/12/19 07:45:37;;;;;;;18.00;3.97;;;7.60;99.90;;;;;;4959497;28;20055;-82
2021/12/19 07:48:04;;;;;;;19.95;3.80;;;7.60;99.90;;;;;;4942563;28;20100;-82
2021/12/19 07:50:30;;;;;;;20.77;3.97;;;7.60;99.90;;;;;;4959118;28;20050;-82
2021/12/19 07:52:57;;;;;;;29.85;4.50;;;7.70;99.90;;;;;;4959136;28;20128;-82
2021/12/19 07:55:24;;;;;;;18.20;4.10;;;7.70;99.90;;;;;;4959048;28;20050;-82
2021/12/19 07:57:50;;;;;;;27.50;5.00;;;7.70;99.90;;;;;;4926804;28;20042;-81
2021/12/19 08:00:17;;;;;;;15.52;4.45;;;7.70;99.90;;;;;;4958621;28;20081;-81
2021/12/19 08:02:45;;;;;;;21.08;3.90;;;7.70;99.90;;;;;;4958544;28;20051;-81
2021/12/19 08:05:12;;;;;;;23.05;4.18;;;7.80;99.90;;;;;;4975760;28;20053;-82
2021/12/19 08:07:39;;;;;;;17.38;3.83;;;7.80;99.90;;;;;;4958604;28;20046;-81
2021/12/19 08:12:36;;;;;;;19.73;3.72;;;7.80;99.90;;;;;;4958495;28;20380;-83
2021/12/19 08:15:06;;;;;;;19.95;4.10;;;8.00;99.90;;;;;;4958581;28;20175;-83
2021/12/19 08:17:33;;;;;;;24.08;4.00;;;7.80;99.90;;;;;;4942930;28;20447;-83
2021/12/19 08:20:00;;;;;;;21.00;3.78;;;7.80;99.90;;;;;;4975668;28;20075;-83
2021/12/19 08:22:27;;;;;;;17.48;3.30;;;7.80;99.90;;;;;;4974780;28;20136;-78
2021/12/19 08:24:53;;;;;;;24.00;4.18;;;7.80;99.90;;;;;;4958390;28;20467;-78
2021/12/19 08:27:19;;;;;;;21.25;3.95;;;7.80;99.90;;;;;;4957966;28;20071;-78
2021/12/19 08:29:46;;;;;;;19.23;3.67;;;8.30;99.90;;;;;;4958053;28;20490;-78
2021/12/19 08:32:12;;;;;;;20.73;4.07;;;7.80;99.90;;;;;;4958299;28;20043;-78
2021/12/19 08:34:38;;;;;;;19.65;3.85;;;7.70;99.90;;;;;;4975749;28;20054;-78
2021/12/19 08:37:07;;;;;;;18.15;3.60;;;7.70;99.90;;;;;;4954797;29;20051;-78
2021/12/19 08:39:33;;;;;;;29.27;4.80;;;7.80;99.90;;;;;;4924058;29;20395;-83
2021/12/19 08:42:01;;;;;;;19.23;3.20;;;7.90;99.90;;;;;;4938655;29;20101;-82
2021/12/19 08:44:30;;;;;;;18.75;3.50;;;8.40;99.90;;;;;;4956523;28;20399;-83
2021/12/19 08:46:56;;;;;;;13.70;3.38;;;7.70;99.90;;;;;;4955027;29;20039;-83
2021/12/19 08:49:21;;;;;;;16.80;3.78;;;7.70;99.90;;;;;;4955049;29;20047;-83
2021/12/19 08:51:47;;;;;;;18.63;3.28;;;8.10;99.90;;;;;;4955058;29;20134;-83
2021/12/19 08:54:13;;;;;;;21.83;3.58;;;8.30;99.90;;;;;;4939323;29;20075;-82
2021/12/19 08:56:39;;;;;;;24.38;4.30;;;7.80;99.90;;;;;;4954354;29;20046;-83
2021/12/19 08:59:05;;;;;;;13.50;3.70;;;7.80;99.90;;;;;;4938291;29;20047;-82
2021/12/19 09:01:37;;;;;;;19.80;4.13;;;7.80;99.90;;;;;;4942800;29;20047;-83
2021/12/19 09:04:03;;;;;;;18.15;3.78;;;7.80;99.90;;;;;;4936645;29;20098;-82
2021/12/19 09:06:29;;;;;;;19.40;4.10;;;7.80;99.90;;;;;;4953861;29;20047;-83
2021/12/19 09:08:55;;;;;;;18.35;3.70;;;7.90;99.90;;;;;;4938600;29;20043;-83
2021/12/19 09:11:21;;;;;;;21.23;3.80;;;7.80;99.90;;;;;;4938490;29;20090;-83
2021/12/19 09:13:47;;;;;;;23.92;4.45;;;7.90;99.90;;;;;;4954552;29;20399;-83
2021/12/19 09:16:13;;;;;;;21.02;4.22;;;7.80;99.90;;;;;;4954418;29;20039;-83
2021/12/19 09:18:39;;;;;;;19.80;4.03;;;7.80;99.90;;;;;;4954639;29;20361;-83
2021/12/19 09:21:05;;;;;;;24.35;4.00;;;7.80;99.90;;;;;;4954230;29;20050;-83
2021/12/19 09:23:32;;;;;;;24.35;4.35;;;8.10;99.90;;;;;;4954495;29;20075;-82
2021/12/19 09:25:58;;;;;;;24.08;4.25;;;7.80;99.90;;;;;;4955933;28;20078;-82
2021/12/19 09:28:24;;;;;;;24.35;4.38;;;8.50;99.90;;;;;;4954650;28;20047;-83
2021/12/19 09:30:50;;;;;;;24.38;4.00;;;7.80;99.90;;;;;;4955333;29;20042;-82
2021/12/19 09:33:16;;;;;;;23.83;4.07;;;7.80;99.90;;;;;;4937674;29;20055;-83
2021/12/19 09:35:42;;;;;;;22.77;3.78;;;7.80;99.90;;;;;;4953724;29;20445;-83
2021/12/19 09:38:08;;;;;;;19.15;3.53;;;7.80;99.90;;;;;;4972848;28;20058;-83
2021/12/19 09:40:37;;;;;;;27.30;4.50;;;8.10;99.90;;;;;;4909390;28;20961;-82
2021/12/19 09:46:25;;;;;;;25.02;3.72;;;7.90;99.90;;;;;;4940438;28;20251;-78
2021/12/19 09:48:50;;;;;;;28.13;4.72;;;8.70;99.90;;;;;;4940267;28;20038;-78
2021/12/19 09:51:17;;;;;;;20.38;3.80;;;7.90;99.90;;;;;;4940472;28;20458;-78
2021/12/19 09:53:44;;;;;;;29.35;4.70;;;7.90;99.90;;;;;;4957087;28;20051;-83
2021/12/19 09:56:11;;;;;;;25.67;4.18;;;7.90;99.90;;;;;;4957232;28;20050;-83
2021/12/19 09:58:40;;;;;;;23.73;4.38;;;7.90;99.90;;;;;;4956880;28;20053;-83
2021/12/19 10:01:09;;;;;;;26.88;3.88;;;7.90;99.90;;;;;;4941141;28;20035;-82
2021/12/19 10:03:37;;;;;;;23.63;4.30;;;8.00;99.90;;;;;;4956452;28;20062;-83
2021/12/19 10:06:33;;;;;;;24.80;4.30;;;8.00;99.90;;;;;;4940225;28;20488;-82
2021/12/19 10:09:18;;;;;;;22.35;4.00;;;8.20;99.90;;;;;;4924962;29;20047;-82
2021/12/19 10:14:38;;;;;;;24.50;3.55;;;8.20;99.90;;;;;;4956698;28;20085;-82
2021/12/19 10:17:07;;;;;;;21.80;3.65;;;8.10;99.90;;;;;;4955344;28;20126;-79
2021/12/19 10:19:44;;;;;;;17.58;3.42;;;8.00;99.90;;;;;;4940697;28;20046;-83
2021/12/19 10:22:23;;;;;;;23.02;3.20;;;8.10;99.90;;;;;;4973920;28;20121;-83
2021/12/19 10:24:49;;;;;;;24.15;3.53;;;8.00;99.90;;;;;;4955966;28;20039;-78
2021/12/19 10:27:38;;;;;;;17.00;2.80;;;8.00;99.90;;;;;;4956287;28;20039;-79
2021/12/19 10:30:16;;;;;;;17.92;3.47;;;8.00;99.90;;;;;;4973990;28;20127;-78
2021/12/19 10:33:04;;;;;;;17.73;2.95;;;8.00;99.90;;;;;;4955619;28;20039;-78
2021/12/19 10:35:50;;;;;;;15.55;2.58;;;8.00;99.90;;;;;;4955747;28;20097;-78
2021/12/19 10:38:24;;;;;;;16.08;2.95;;;8.60;99.90;;;;;;4956047;28;20058;-79
2021/12/19 10:41:22;;;;;;;17.75;3.00;;;8.10;99.90;;;;;;4956525;28;20047;-83
2021/12/19 10:45:29;;;;;;;17.45;2.92;;;8.10;99.90;;;;;;4944003;28;20138;-79
2021/12/19 10:46:43;;;;;;;15.77;2.92;;;8.10;99.90;;;;;;4971151;28;20061;-83
2021/12/19 10:49:32;;;;;;;15.98;2.80;;;8.20;99.90;;;;;;4939883;28;20050;-78
2021/12/19 10:52:04;;;;;;;17.75;2.97;;;8.20;99.90;;;;;;4956164;28;20077;-78
2021/12/19 10:54:30;;;;;;;19.33;3.10;;;8.10;99.90;;;;;;4940045;28;20038;-79
2021/12/19 10:57:08;;;;;;;22.42;3.33;;;8.20;99.90;;;;;;4956333;28;20050;-78
2021/12/19 10:59:35;;;;;;;13.77;2.75;;;8.20;99.90;;;;;;4939765;28;20162;-78
2021/12/19 11:02:01;;;;;;;21.23;3.47;;;8.20;99.90;;;;;;4956035;28;20051;-78
2021/12/19 11:04:29;;;;;;;22.80;3.80;;;8.20;99.90;;;;;;4956062;28;20093;-83
2021/12/19 11:06:59;;;;;;;19.77;3.35;;;8.20;99.90;;;;;;4939908;28;20558;-83
2021/12/19 11:09:32;;;;;;;23.85;3.58;;;8.20;99.90;;;;;;4973192;28;20049;-82
2021/12/19 11:12:13;;;;;;;22.40;2.85;;;8.20;99.90;;;;;;4955564;28;20072;-82
2021/12/19 11:14:44;;;;;;;20.45;3.38;;;8.30;99.90;;;;;;4955986;28;20144;-83
2021/12/19 11:17:14;;;;;;;19.05;3.75;;;8.40;99.90;;;;;;4939983;28;20166;-83
2021/12/19 11:19:41;;;;;;;17.30;3.30;;;8.30;99.90;;;;;;4939921;28;20088;-83
2021/12/19 11:22:07;;;;;;;17.60;3.55;;;8.30;99.90;;;;;;4939769;28;20043;-82
2021/12/19 11:24:33;;;;;;;21.63;4.07;;;9.10;99.90;;;;;;4955696;28;20145;-83
2021/12/19 11:27:01;;;;;;;23.88;3.38;;;8.20;99.90;;;;;;4972774;28;20099;-83
2021/12/19 11:29:28;;;;;;;22.60;3.22;;;8.30;99.90;;;;;;4955808;28;20121;-83
2021/12/19 11:31:58;;;;;;;21.90;4.10;;;8.50;99.90;;;;;;4955780;28;20054;-83
2021/12/19 11:34:52;;;;;;;18.88;3.40;;;8.90;99.90;;;;;;4973255;28;20043;-78
2021/12/19 11:37:23;;;;;;;25.75;4.05;;;8.30;99.90;;;;;;4955662;28;20091;-78
2021/12/19 11:39:59;;;;;;;20.13;3.60;;;8.30;99.90;;;;;;4941135;28;20336;-78
2021/12/19 11:42:43;;;;;;;29.92;4.82;;;8.40;99.90;;;;;;4939431;28;20050;-78
2021/12/19 11:45:42;;;;;;;19.92;3.53;;;8.40;99.90;;;;;;4936711;29;20039;-78
2021/12/19 11:48:30;;;;;;;20.40;3.38;;;8.50;99.90;;;;;;4936003;29;20047;-77
2021/12/19 11:50:56;;;;;;;20.55;4.10;;;8.40;99.90;;;;;;4932646;28;20038;-77
2021/12/19 11:53:36;;;;;;;23.17;4.70;;;8.40;99.90;;;;;;4939728;28;20043;-77
2021/12/19 11:56:09;;;;;;;31.63;5.05;;;8.40;99.90;;;;;;4957104;28;20078;-78
2021/12/19 11:58:46;;;;;;;28.25;4.82;;;8.40;99.90;;;;;;4976189;28;20070;-78
2021/12/19 12:01:24;;;;;;;22.25;3.67;;;8.40;99.90;;;;;;4942637;28;20050;-77
2021/12/19 12:03:52;;;;;;;27.15;3.53;;;8.40;99.90;;;;;;4942982;28;20046;-82
2021/12/19 12:06:31;;;;;;;27.83;4.38;;;8.70;99.90;;;;;;4958912;28;20043;-82
2021/12/19 12:09:04;;;;;;;32.22;4.53;;;8.50;99.90;;;;;;4958731;28;20043;-77
2021/12/19 12:11:31;;;;;;;28.35;4.40;;;8.40;99.90;;;;;;4958671;28;20038;-77
2021/12/19 12:14:23;;;;;;;26.95;4.20;;;8.40;99.90;;;;;;4942720;28;20042;-78
2021/12/19 12:16:56;;;;;;;27.65;3.95;;;8.50;99.90;;;;;;4939298;29;20515;-77
2021/12/19 12:19:54;;;;;;;27.67;4.13;;;8.50;99.90;;;;;;4941707;28;20565;-82
2021/12/19 12:22:26;;;;;;;26.17;4.25;;;8.50;99.90;;;;;;4942357;28;20047;-82
2021/12/19 12:25:06;;;;;;;27.63;4.30;;;8.60;99.90;;;;;;4958116;28;20039;-77
2021/12/19 12:27:51;;;;;;;29.15;4.35;;;8.60;99.90;;;;;;4942570;28;20047;-77
2021/12/19 12:30:24;;;;;;;20.65;4.20;;;8.50;99.90;;;;;;4975286;28;20042;-78
2021/12/19 12:32:51;;;;;;;22.05;3.65;;;8.60;99.90;;;;;;4942312;28;20050;-78
2021/12/19 12:35:19;;;;;;;25.23;3.50;;;8.60;99.90;;;;;;4942012;28;20183;-77
2021/12/19 12:37:47;;;;;;;25.80;4.03;;;8.50;99.90;;;;;;4942287;28;20077;-77
2021/12/19 12:40:31;;;;;;;25.48;4.20;;;8.60;99.90;;;;;;4958406;28;20117;-78
2021/12/19 12:43:05;;;;;;;30.40;4.53;;;8.60;99.90;;;;;;4975026;28;20031;-78
2021/12/19 12:45:51;;;;;;;25.98;4.22;;;8.50;99.90;;;;;;4957930;28;20277;-78
2021/12/19 12:48:29;;;;;;;39.13;5.18;;;8.50;99.90;;;;;;4958231;28;20047;-77
2021/12/19 12:50:54;;;;;;;27.17;5.07;;;8.40;99.90;;;;;;4942162;28;20038;-78
2021/12/19 12:53:31;;;;;;;24.08;4.28;;;8.40;99.90;;;;;;4975383;28;20153;-78
2021/12/19 12:56:11;;;;;;;31.58;3.80;;;8.60;99.90;;;;;;4957892;28;20042;-78
2021/12/19 12:58:42;;;;;;;29.20;4.30;;;8.40;99.90;;;;;;4974399;28;20051;-78
2021/12/19 13:01:27;;;;;;;27.85;4.53;;;8.50;99.90;;;;;;4975139;28;20039;-78
2021/12/19 13:04:05;;;;;;;26.98;4.63;;;8.50;99.90;;;;;;4957715;28;20101;-78
2021/12/19 13:06:42;;;;;;;25.95;4.43;;;8.40;99.90;;;;;;4974699;28;20038;-77
2021/12/19 13:09:33;;;;;;;23.85;3.83;;;8.20;99.90;;;;;;4957632;28;20081;-78
2021/12/19 13:12:11;;;;;;;23.58;3.88;;;8.50;99.90;;;;;;4927401;29;20051;-77
2021/12/19 13:14:53;;;;;;;28.35;4.28;;;8.40;99.90;;;;;;4938557;29;20043;-78
2021/12/19 13:17:23;;;;;;;22.27;3.50;;;8.40;99.90;;;;;;4955698;29;20043;-78
2021/12/19 13:20:06;;;;;;;29.25;3.90;;;8.40;99.90;;;;;;4955360;29;20031;-78
2021/12/19 13:22:31;;;;;;;23.48;4.00;;;8.40;99.90;;;;;;4938227;29;20510;-78
2021/12/19 13:25:05;;;;;;;28.05;4.05;;;8.40;99.90;;;;;;4941254;28;20118;-78
2021/12/19 13:27:34;;;;;;;30.08;3.97;;;8.40;99.90;;;;;;4940953;28;20385;-78
2021/12/19 13:30:06;;;;;;;25.52;3.75;;;8.40;99.90;;;;;;4974788;28;20455;-78
2021/12/19 13:32:37;;;;;;;28.73;4.03;;;8.40;99.90;;;;;;4974714;28;20097;-78
2021/12/19 13:35:07;;;;;;;21.00;3.88;;;8.50;99.90;;;;;;4957135;28;20035;-78
2021/12/19 13:37:34;;;;;;;23.58;3.80;;;8.50;99.90;;;;;;4956904;28;20055;-78
2021/12/19 13:40:07;;;;;;;25.60;3.25;;;8.50;99.90;;;;;;4973857;28;20443;-78
2021/12/19 13:42:48;;;;;;;28.75;4.28;;;8.50;99.90;;;;;;4940599;28;20082;-78
2021/12/19 13:45:41;;;;;;;32.60;4.72;;;8.50;99.90;;;;;;4974466;28;20462;-78
2021/12/19 13:48:30;;;;;;;30.10;3.85;;;8.50;99.90;;;;;;4953444;28;20415;-77
2021/12/19 13:51:21;;;;;;;24.85;4.68;;;8.50;99.90;;;;;;4940584;28;20499;-78
2021/12/19 13:53:50;;;;;;;29.95;4.93;;;8.60;99.90;;;;;;4956694;28;20396;-78
2021/12/19 13:56:24;;;;;;;28.25;5.15;;;8.60;99.90;;;;;;4957077;28;20031;-78
2021/12/19 13:59:01;;;;;;;28.90;4.68;;;8.60;99.90;;;;;;4956633;28;20074;-78
2021/12/19 14:01:30;;;;;;;22.85;4.05;;;8.60;99.90;;;;;;4940531;28;20091;-78
2021/12/19 14:03:58;;;;;;;27.70;3.85;;;8.50;99.90;;;;;;4940419;28;20155;-78
2021/12/19 14:06:35;;;;;;;24.40;3.65;;;8.50;99.90;;;;;;4973993;28;20043;-78
2021/12/19 14:09:21;;;;;;;24.00;3.65;;;8.50;99.90;;;;;;4973597;28;20043;-78
2021/12/19 14:11:56;;;;;;;21.63;3.55;;;8.50;99.90;;;;;;4973528;28;20440;-78
2021/12/19 14:14:26;;;;;;;25.65;3.88;;;8.50;99.90;;;;;;4956430;28;20050;-78
2021/12/19 14:16:57;;;;;;;17.42;3.10;;;8.40;99.90;;;;;;4956488;28;20125;-78